sensor_id;sensor_type;location;lat;lon;timestamp;P1;durP1;ratioP1;P2;durP2;ratioP2
43809;SDS011;29440;48.208;11.162;2024-03-17T00:02:20;5.57;;;2.00;;
43809;SDS011;29440;48.208;11.162;2024-03-17T00:04:45;3.58;;;1.92;;
43809;SDS011;29440;48.208;11.162;2024-03-17T00:07:11;3.95;;;2.22;;
43809;SDS011;29440;48.208;11.162;2024-03-17T00:09:38;3.28;;;1.95;;
43809;SDS011;29440;48.208;11.162;2024-03-17T00:12:03;4.22;;;2.03;;
43809;SDS011;29440;48.208;11.162;2024-03-17T00:14:30;3.58;;;2.13;;
43809;SDS011;29440;48.208;11.162;2024-03-17T00:16:55;4.25;;;2.33;;
43809;SDS011;29440;48.208;11.162;2024-03-17T00:19:21;4.15;;;2.35;;
43809;SDS011;29440;48.208;11.162;2024-03-17T00:21:48;6.32;;;2.42;;
43809;SDS011;29440;48.208;11.162;2024-03-17T00:24:17;5.72;;;2.30;;
43809;SDS011;29440;48.208;11.162;2024-03-17T00:26:43;4.30;;;2.50;;
43809;SDS011;29440;48.208;11.162;2024-03-17T00:29:09;5.55;;;2.55;;
43809;SDS011;29440;48.208;11.162;2024-03-17T00:31:35;3.70;;;2.33;;
43809;SDS011;29440;48.208;11.162;2024-03-17T00:34:00;3.47;;;2.53;;
43809;SDS011;29440;48.208;11.162;2024-03-17T00:36:26;5.13;;;2.20;;
43809;SDS011;29440;48.208;11.162;2024-03-17T00:38:52;4.28;;;2.47;;
43809;SDS011;29440;48.208;11.162;2024-03-17T00:41:17;3.45;;;2.40;;
43809;SDS011;29440;48.208;11.162;2024-03-17T00:43:44;7.35;;;2.28;;
43809;SDS011;29440;48.208;11.162;2024-03-17T00:46:09;4.22;;;1.90;;
43809;SDS011;29440;48.208;11.162;2024-03-17T00:48:35;3.85;;;2.00;;
43809;SDS011;29440;48.208;11.162;2024-03-17T00:51:00;2.58;;;1.52;;
43809;SDS011;29440;48.208;11.162;2024-03-17T00:53:27;4.15;;;2.30;;
43809;SDS011;29440;48.208;11.162;2024-03-17T00:55:56;3.25;;;2.22;;
43809;SDS011;29440;48.208;11.162;2024-03-17T01:00:53;3.53;;;2.25;;
43809;SDS011;29440;48.208;11.162;2024-03-17T01:03:19;2.33;;;1.73;;
43809;SDS011;29440;48.208;11.162;2024-03-17T01:05:45;3.53;;;1.92;;
43809;SDS011;29440;48.208;11.162;2024-03-17T01:08:13;3.30;;;2.08;;
43809;SDS011;29440;48.208;11.162;2024-03-17T01:10:42;4.43;;;2.47;;
43809;SDS011;29440;48.208;11.162;2024-03-17T01:13:08;4.28;;;1.60;;
43809;SDS011;29440;48.208;11.162;2024-03-17T01:15:35;5.07;;;2.67;;
43809;SDS011;29440;48.208;11.162;2024-03-17T01:18:04;2.72;;;2.03;;
43809;SDS011;29440;48.208;11.162;2024-03-17T01:20:37;2.92;;;2.17;;
43809;SDS011;29440;48.208;11.162;2024-03-17T01:23:03;5.88;;;2.63;;
43809;SDS011;29440;48.208;11.162;2024-03-17T01:25:29;5.25;;;2.47;;
43809;SDS011;29440;48.208;11.162;2024-03-17T01:27:56;3.75;;;2.33;;
43809;SDS011;29440;48.208;11.162;2024-03-17T01:30:22;5.78;;;2.50;;
43809;SDS011;29440;48.208;11.162;2024-03-17T01:32:48;4.22;;;2.58;;
43809;SDS011;29440;48.208;11.162;2024-03-17T01:35:15;7.07;;;3.38;;
43809;SDS011;29440;48.208;11.162;2024-03-17T01:37:41;4.43;;;2.50;;
43809;SDS011;29440;48.208;11.162;2024-03-17T01:40:07;3.78;;;2.25;;
43809;SDS011;29440;48.208;11.162;2024-03-17T01:42:34;4.85;;;3.47;;
43809;SDS011;29440;48.208;11.162;2024-03-17T01:45:00;5.65;;;3.47;;
43809;SDS011;29440;48.208;11.162;2024-03-17T01:47:26;7.93;;;3.42;;
43809;SDS011;29440;48.208;11.162;2024-03-17T01:49:52;5.63;;;2.80;;
43809;SDS011;29440;48.208;11.162;2024-03-17T01:52:19;4.35;;;2.47;;
43809;SDS011;29440;48.208;11.162;2024-03-17T01:54:46;3.20;;;2.28;;
43809;SDS011;29440;48.208;11.162;2024-03-17T01:57:12;5.03;;;2.85;;
43809;SDS011;29440;48.208;11.162;2024-03-17T01:59:38;5.35;;;2.70;;
43809;SDS011;29440;48.208;11.162;2024-03-17T02:02:05;6.07;;;2.45;;
43809;SDS011;29440;48.208;11.162;2024-03-17T02:04:31;3.67;;;2.60;;
43809;SDS011;29440;48.208;11.162;2024-03-17T02:06:56;5.93;;;2.17;;
43809;SDS011;29440;48.208;11.162;2024-03-17T02:09:27;2.80;;;1.92;;
43809;SDS011;29440;48.208;11.162;2024-03-17T02:11:53;4.22;;;2.42;;
43809;SDS011;29440;48.208;11.162;2024-03-17T02:14:19;5.30;;;2.90;;
43809;SDS011;29440;48.208;11.162;2024-03-17T02:16:46;4.35;;;2.38;;
43809;SDS011;29440;48.208;11.162;2024-03-17T02:19:11;5.10;;;3.03;;
43809;SDS011;29440;48.208;11.162;2024-03-17T02:21:37;4.65;;;2.47;;
43809;SDS011;29440;48.208;11.162;2024-03-17T02:24:03;6.03;;;2.47;;
43809;SDS011;29440;48.208;11.162;2024-03-17T02:26:29;6.32;;;2.80;;
43809;SDS011;29440;48.208;11.162;2024-03-17T02:28:54;4.38;;;2.80;;
43809;SDS011;29440;48.208;11.162;2024-03-17T02:31:20;4.75;;;3.28;;
43809;SDS011;29440;48.208;11.162;2024-03-17T02:33:47;4.78;;;3.03;;
43809;SDS011;29440;48.208;11.162;2024-03-17T02:36:13;5.68;;;2.92;;
43809;SDS011;29440;48.208;11.162;2024-03-17T02:38:39;6.40;;;3.58;;
43809;SDS011;29440;48.208;11.162;2024-03-17T02:41:23;8.32;;;4.00;;
43809;SDS011;29440;48.208;11.162;2024-03-17T02:43:49;6.75;;;3.58;;
43809;SDS011;29440;48.208;11.162;2024-03-17T02:46:16;7.18;;;3.25;;
43809;SDS011;29440;48.208;11.162;2024-03-17T02:48:43;6.85;;;2.95;;
43809;SDS011;29440;48.208;11.162;2024-03-17T02:51:12;4.03;;;2.83;;
43809;SDS011;29440;48.208;11.162;2024-03-17T02:53:40;5.05;;;3.05;;
43809;SDS011;29440;48.208;11.162;2024-03-17T02:56:06;5.43;;;3.50;;
43809;SDS011;29440;48.208;11.162;2024-03-17T02:58:34;4.65;;;2.85;;
43809;SDS011;29440;48.208;11.162;2024-03-17T03:01:00;4.57;;;3.03;;
43809;SDS011;29440;48.208;11.162;2024-03-17T03:03:27;4.03;;;2.72;;
43809;SDS011;29440;48.208;11.162;2024-03-17T03:05:52;6.22;;;2.92;;
43809;SDS011;29440;48.208;11.162;2024-03-17T03:08:18;8.05;;;3.40;;
43809;SDS011;29440;48.208;11.162;2024-03-17T03:10:44;5.10;;;2.95;;
43809;SDS011;29440;48.208;11.162;2024-03-17T03:13:10;5.15;;;3.22;;
43809;SDS011;29440;48.208;11.162;2024-03-17T03:15:36;4.03;;;2.72;;
43809;SDS011;29440;48.208;11.162;2024-03-17T03:18:01;3.80;;;2.53;;
43809;SDS011;29440;48.208;11.162;2024-03-17T03:20:27;4.35;;;2.80;;
43809;SDS011;29440;48.208;11.162;2024-03-17T03:22:53;6.30;;;3.20;;
43809;SDS011;29440;48.208;11.162;2024-03-17T03:25:19;5.05;;;3.28;;
43809;SDS011;29440;48.208;11.162;2024-03-17T03:27:44;5.93;;;3.58;;
43809;SDS011;29440;48.208;11.162;2024-03-17T03:30:10;5.97;;;3.60;;
43809;SDS011;29440;48.208;11.162;2024-03-17T03:32:36;7.30;;;3.72;;
43809;SDS011;29440;48.208;11.162;2024-03-17T03:35:03;6.60;;;3.78;;
43809;SDS011;29440;48.208;11.162;2024-03-17T03:37:29;6.55;;;4.22;;
43809;SDS011;29440;48.208;11.162;2024-03-17T03:39:55;5.65;;;3.60;;
43809;SDS011;29440;48.208;11.162;2024-03-17T03:42:21;6.13;;;3.90;;
43809;SDS011;29440;48.208;11.162;2024-03-17T03:44:48;6.35;;;3.97;;
43809;SDS011;29440;48.208;11.162;2024-03-17T03:47:14;6.55;;;3.47;;
43809;SDS011;29440;48.208;11.162;2024-03-17T03:49:39;6.47;;;3.85;;
43809;SDS011;29440;48.208;11.162;2024-03-17T03:52:05;7.22;;;3.13;;
43809;SDS011;29440;48.208;11.162;2024-03-17T03:54:31;7.32;;;3.35;;
43809;SDS011;29440;48.208;11.162;2024-03-17T03:56:56;6.20;;;3.33;;
43809;SDS011;29440;48.208;11.162;2024-03-17T03:59:22;6.00;;;3.60;;
43809;SDS011;29440;48.208;11.162;2024-03-17T04:01:48;5.63;;;3.55;;
43809;SDS011;29440;48.208;11.162;2024-03-17T04:04:14;6.95;;;3.75;;
43809;SDS011;29440;48.208;11.162;2024-03-17T04:06:40;8.50;;;3.85;;
43809;SDS011;29440;48.208;11.162;2024-03-17T04:09:06;9.82;;;4.82;;
43809;SDS011;29440;48.208;11.162;2024-03-17T04:11:34;6.60;;;4.53;;
43809;SDS011;29440;48.208;11.162;2024-03-17T04:14:01;7.10;;;3.75;;
43809;SDS011;29440;48.208;11.162;2024-03-17T04:16:28;6.10;;;3.08;;
43809;SDS011;29440;48.208;11.162;2024-03-17T04:18:56;4.75;;;3.15;;
43809;SDS011;29440;48.208;11.162;2024-03-17T04:21:22;5.90;;;3.20;;
43809;SDS011;29440;48.208;11.162;2024-03-17T04:23:47;9.15;;;3.75;;
43809;SDS011;29440;48.208;11.162;2024-03-17T04:26:13;5.47;;;3.25;;
43809;SDS011;29440;48.208;11.162;2024-03-17T04:28:39;6.90;;;4.00;;
43809;SDS011;29440;48.208;11.162;2024-03-17T04:31:05;6.85;;;4.65;;
43809;SDS011;29440;48.208;11.162;2024-03-17T04:33:31;6.63;;;4.03;;
43809;SDS011;29440;48.208;11.162;2024-03-17T04:35:58;6.90;;;4.53;;
43809;SDS011;29440;48.208;11.162;2024-03-17T04:38:23;6.18;;;4.03;;
43809;SDS011;29440;48.208;11.162;2024-03-17T04:40:49;8.73;;;4.60;;
43809;SDS011;29440;48.208;11.162;2024-03-17T04:43:15;9.48;;;4.80;;
43809;SDS011;29440;48.208;11.162;2024-03-17T04:45:41;7.78;;;4.43;;
43809;SDS011;29440;48.208;11.162;2024-03-17T04:48:06;7.80;;;4.65;;
43809;SDS011;29440;48.208;11.162;2024-03-17T04:50:32;8.25;;;3.85;;
43809;SDS011;29440;48.208;11.162;2024-03-17T04:52:58;5.75;;;3.72;;
43809;SDS011;29440;48.208;11.162;2024-03-17T04:55:24;8.45;;;4.82;;
43809;SDS011;29440;48.208;11.162;2024-03-17T04:57:50;8.73;;;4.78;;
43809;SDS011;29440;48.208;11.162;2024-03-17T05:00:16;8.98;;;5.35;;
43809;SDS011;29440;48.208;11.162;2024-03-17T05:02:43;8.43;;;5.20;;
43809;SDS011;29440;48.208;11.162;2024-03-17T05:05:09;15.05;;;5.90;;
43809;SDS011;29440;48.208;11.162;2024-03-17T05:07:35;11.15;;;6.13;;
43809;SDS011;29440;48.208;11.162;2024-03-17T05:10:02;6.97;;;4.45;;
43809;SDS011;29440;48.208;11.162;2024-03-17T05:12:27;8.63;;;4.30;;
43809;SDS011;29440;48.208;11.162;2024-03-17T05:14:53;7.03;;;4.65;;
43809;SDS011;29440;48.208;11.162;2024-03-17T05:17:19;9.32;;;5.35;;
43809;SDS011;29440;48.208;11.162;2024-03-17T05:19:44;17.80;;;9.00;;
43809;SDS011;29440;48.208;11.162;2024-03-17T05:22:10;15.75;;;8.15;;
43809;SDS011;29440;48.208;11.162;2024-03-17T05:24:35;14.90;;;7.68;;
43809;SDS011;29440;48.208;11.162;2024-03-17T05:27:01;12.65;;;7.35;;
43809;SDS011;29440;48.208;11.162;2024-03-17T05:29:27;11.43;;;6.00;;
43809;SDS011;29440;48.208;11.162;2024-03-17T05:31:52;8.10;;;4.78;;
43809;SDS011;29440;48.208;11.162;2024-03-17T05:34:18;8.20;;;5.00;;
43809;SDS011;29440;48.208;11.162;2024-03-17T05:36:43;8.45;;;5.20;;
43809;SDS011;29440;48.208;11.162;2024-03-17T05:39:09;8.45;;;5.10;;
43809;SDS011;29440;48.208;11.162;2024-03-17T05:41:35;6.32;;;3.58;;
43809;SDS011;29440;48.208;11.162;2024-03-17T05:44:10;7.75;;;4.20;;
43809;SDS011;29440;48.208;11.162;2024-03-17T05:46:44;6.43;;;4.22;;
43809;SDS011;29440;48.208;11.162;2024-03-17T05:49:10;6.18;;;4.10;;
43809;SDS011;29440;48.208;11.162;2024-03-17T05:51:35;8.30;;;4.22;;
43809;SDS011;29440;48.208;11.162;2024-03-17T05:54:01;5.78;;;3.72;;
43809;SDS011;29440;48.208;11.162;2024-03-17T05:56:26;7.65;;;4.30;;
43809;SDS011;29440;48.208;11.162;2024-03-17T05:58:52;7.40;;;4.32;;
43809;SDS011;29440;48.208;11.162;2024-03-17T06:01:18;6.45;;;4.28;;
43809;SDS011;29440;48.208;11.162;2024-03-17T06:03:44;7.97;;;4.03;;
43809;SDS011;29440;48.208;11.162;2024-03-17T06:06:10;7.45;;;4.43;;
43809;SDS011;29440;48.208;11.162;2024-03-17T06:08:36;9.45;;;4.43;;
43809;SDS011;29440;48.208;11.162;2024-03-17T06:11:02;8.15;;;4.93;;
43809;SDS011;29440;48.208;11.162;2024-03-17T06:16:03;7.25;;;5.00;;
43809;SDS011;29440;48.208;11.162;2024-03-17T06:18:30;8.38;;;4.80;;
43809;SDS011;29440;48.208;11.162;2024-03-17T06:20:56;6.40;;;4.22;;
43809;SDS011;29440;48.208;11.162;2024-03-17T06:23:24;13.18;;;5.80;;
43809;SDS011;29440;48.208;11.162;2024-03-17T06:25:52;9.95;;;6.15;;
43809;SDS011;29440;48.208;11.162;2024-03-17T06:28:19;10.63;;;6.07;;
43809;SDS011;29440;48.208;11.162;2024-03-17T06:30:45;9.02;;;5.78;;
43809;SDS011;29440;48.208;11.162;2024-03-17T06:33:16;10.38;;;5.35;;
43809;SDS011;29440;48.208;11.162;2024-03-17T06:35:45;10.25;;;5.90;;
43809;SDS011;29440;48.208;11.162;2024-03-17T06:38:12;9.55;;;5.43;;
43809;SDS011;29440;48.208;11.162;2024-03-17T06:40:37;11.18;;;5.80;;
43809;SDS011;29440;48.208;11.162;2024-03-17T06:43:04;12.15;;;4.93;;
43809;SDS011;29440;48.208;11.162;2024-03-17T06:45:30;6.95;;;4.45;;
43809;SDS011;29440;48.208;11.162;2024-03-17T06:47:56;8.48;;;4.15;;
43809;SDS011;29440;48.208;11.162;2024-03-17T06:50:22;5.05;;;3.15;;
43809;SDS011;29440;48.208;11.162;2024-03-17T06:52:47;6.53;;;3.30;;
43809;SDS011;29440;48.208;11.162;2024-03-17T06:55:13;6.65;;;3.72;;
43809;SDS011;29440;48.208;11.162;2024-03-17T06:57:41;4.82;;;2.67;;
43809;SDS011;29440;48.208;11.162;2024-03-17T07:00:08;6.53;;;3.20;;
43809;SDS011;29440;48.208;11.162;2024-03-17T07:02:39;4.43;;;2.75;;
43809;SDS011;29440;48.208;11.162;2024-03-17T07:05:06;4.07;;;2.72;;
43809;SDS011;29440;48.208;11.162;2024-03-17T07:07:32;5.45;;;2.80;;
43809;SDS011;29440;48.208;11.162;2024-03-17T07:09:58;4.43;;;2.70;;
43809;SDS011;29440;48.208;11.162;2024-03-17T07:12:23;3.90;;;2.22;;
43809;SDS011;29440;48.208;11.162;2024-03-17T07:14:52;6.18;;;2.78;;
43809;SDS011;29440;48.208;11.162;2024-03-17T07:17:17;5.72;;;2.67;;
43809;SDS011;29440;48.208;11.162;2024-03-17T07:19:43;6.97;;;2.78;;
43809;SDS011;29440;48.208;11.162;2024-03-17T07:22:08;5.43;;;2.53;;
43809;SDS011;29440;48.208;11.162;2024-03-17T07:24:34;3.25;;;2.33;;
43809;SDS011;29440;48.208;11.162;2024-03-17T07:27:02;4.68;;;2.63;;
43809;SDS011;29440;48.208;11.162;2024-03-17T07:29:28;5.60;;;3.08;;
43809;SDS011;29440;48.208;11.162;2024-03-17T07:31:53;5.00;;;3.00;;
43809;SDS011;29440;48.208;11.162;2024-03-17T07:34:19;5.95;;;3.00;;
43809;SDS011;29440;48.208;11.162;2024-03-17T07:36:45;7.57;;;3.25;;
43809;SDS011;29440;48.208;11.162;2024-03-17T07:39:12;4.22;;;2.72;;
43809;SDS011;29440;48.208;11.162;2024-03-17T07:41:37;7.15;;;3.08;;
43809;SDS011;29440;48.208;11.162;2024-03-17T07:44:03;7.80;;;2.88;;
43809;SDS011;29440;48.208;11.162;2024-03-17T07:46:28;4.00;;;2.70;;
43809;SDS011;29440;48.208;11.162;2024-03-17T07:48:54;5.13;;;3.20;;
43809;SDS011;29440;48.208;11.162;2024-03-17T07:51:19;4.75;;;3.15;;
43809;SDS011;29440;48.208;11.162;2024-03-17T07:53:48;3.88;;;2.67;;
43809;SDS011;29440;48.208;11.162;2024-03-17T07:56:15;10.40;;;3.13;;
43809;SDS011;29440;48.208;11.162;2024-03-17T07:58:44;4.43;;;2.65;;
43809;SDS011;29440;48.208;11.162;2024-03-17T08:01:13;4.82;;;2.60;;
43809;SDS011;29440;48.208;11.162;2024-03-17T08:03:40;4.20;;;2.50;;
43809;SDS011;29440;48.208;11.162;2024-03-17T08:06:10;4.68;;;2.78;;
43809;SDS011;29440;48.208;11.162;2024-03-17T08:08:36;4.25;;;2.50;;
43809;SDS011;29440;48.208;11.162;2024-03-17T08:11:02;4.70;;;2.78;;
43809;SDS011;29440;48.208;11.162;2024-03-17T08:13:28;4.07;;;2.58;;
43809;SDS011;29440;48.208;11.162;2024-03-17T08:15:59;3.25;;;2.25;;
43809;SDS011;29440;48.208;11.162;2024-03-17T08:18:30;3.28;;;2.20;;
43809;SDS011;29440;48.208;11.162;2024-03-17T08:20:57;3.63;;;2.30;;
43809;SDS011;29440;48.208;11.162;2024-03-17T08:23:23;3.83;;;1.80;;
43809;SDS011;29440;48.208;11.162;2024-03-17T08:25:52;5.22;;;2.58;;
43809;SDS011;29440;48.208;11.162;2024-03-17T08:28:19;4.22;;;2.17;;
43809;SDS011;29440;48.208;11.162;2024-03-17T08:30:50;3.65;;;2.20;;
43809;SDS011;29440;48.208;11.162;2024-03-17T08:33:17;2.85;;;2.22;;
43809;SDS011;29440;48.208;11.162;2024-03-17T08:35:51;3.65;;;2.10;;
43809;SDS011;29440;48.208;11.162;2024-03-17T08:38:21;3.88;;;2.25;;
43809;SDS011;29440;48.208;11.162;2024-03-17T08:40:48;3.13;;;2.17;;
43809;SDS011;29440;48.208;11.162;2024-03-17T08:43:26;5.18;;;2.10;;
43809;SDS011;29440;48.208;11.162;2024-03-17T08:48:28;2.42;;;1.88;;
43809;SDS011;29440;48.208;11.162;2024-03-17T08:50:57;3.03;;;1.90;;
43809;SDS011;29440;48.208;11.162;2024-03-17T08:53:24;2.65;;;1.55;;
43809;SDS011;29440;48.208;11.162;2024-03-17T08:55:50;2.83;;;1.73;;
43809;SDS011;29440;48.208;11.162;2024-03-17T08:58:16;2.92;;;1.40;;
43809;SDS011;29440;48.208;11.162;2024-03-17T09:00:42;2.70;;;1.67;;
43809;SDS011;29440;48.208;11.162;2024-03-17T09:03:08;2.10;;;1.60;;
43809;SDS011;29440;48.208;11.162;2024-03-17T09:05:41;3.15;;;1.70;;
43809;SDS011;29440;48.208;11.162;2024-03-17T09:08:15;2.67;;;1.33;;
43809;SDS011;29440;48.208;11.162;2024-03-17T09:10:45;2.03;;;1.30;;
43809;SDS011;29440;48.208;11.162;2024-03-17T09:13:15;3.40;;;1.83;;
43809;SDS011;29440;48.208;11.162;2024-03-17T09:15:49;2.53;;;1.67;;
43809;SDS011;29440;48.208;11.162;2024-03-17T09:18:31;2.45;;;1.30;;
43809;SDS011;29440;48.208;11.162;2024-03-17T09:21:02;1.52;;;1.00;;
43809;SDS011;29440;48.208;11.162;2024-03-17T09:23:28;3.50;;;1.45;;
43809;SDS011;29440;48.208;11.162;2024-03-17T09:25:55;1.75;;;1.08;;
43809;SDS011;29440;48.208;11.162;2024-03-17T09:28:25;2.30;;;1.20;;
43809;SDS011;29440;48.208;11.162;2024-03-17T09:30:52;2.17;;;1.17;;
43809;SDS011;29440;48.208;11.162;2024-03-17T09:33:21;1.35;;;1.00;;
43809;SDS011;29440;48.208;11.162;2024-03-17T09:36:01;2.28;;;1.30;;
43809;SDS011;29440;48.208;11.162;2024-03-17T09:38:29;1.50;;;1.02;;
43809;SDS011;29440;48.208;11.162;2024-03-17T09:40:55;3.08;;;1.38;;
43809;SDS011;29440;48.208;11.162;2024-03-17T09:43:26;2.08;;;1.10;;
43809;SDS011;29440;48.208;11.162;2024-03-17T09:45:57;1.17;;;0.80;;
43809;SDS011;29440;48.208;11.162;2024-03-17T09:48:23;1.40;;;0.80;;
43809;SDS011;29440;48.208;11.162;2024-03-17T09:50:50;1.55;;;0.90;;
43809;SDS011;29440;48.208;11.162;2024-03-17T09:53:24;1.30;;;0.85;;
43809;SDS011;29440;48.208;11.162;2024-03-17T09:56:12;1.63;;;0.90;;
43809;SDS011;29440;48.208;11.162;2024-03-17T09:58:38;2.72;;;0.88;;
43809;SDS011;29440;48.208;11.162;2024-03-17T10:01:04;2.97;;;0.95;;
43809;SDS011;29440;48.208;11.162;2024-03-17T10:03:43;2.05;;;0.85;;
43809;SDS011;29440;48.208;11.162;2024-03-17T10:06:10;1.00;;;0.80;;
43809;SDS011;29440;48.208;11.162;2024-03-17T10:08:47;2.20;;;1.15;;
43809;SDS011;29440;48.208;11.162;2024-03-17T10:11:18;2.05;;;1.02;;
43809;SDS011;29440;48.208;11.162;2024-03-17T10:13:58;1.45;;;0.93;;
43809;SDS011;29440;48.208;11.162;2024-03-17T10:16:26;1.55;;;1.00;;
43809;SDS011;29440;48.208;11.162;2024-03-17T10:19:13;2.08;;;1.00;;
43809;SDS011;29440;48.208;11.162;2024-03-17T10:21:49;1.77;;;0.90;;
43809;SDS011;29440;48.208;11.162;2024-03-17T10:24:23;0.83;;;0.57;;
43809;SDS011;29440;48.208;11.162;2024-03-17T10:26:50;1.33;;;0.70;;
43809;SDS011;29440;48.208;11.162;2024-03-17T10:29:23;1.20;;;0.65;;
43809;SDS011;29440;48.208;11.162;2024-03-17T10:34:38;1.20;;;0.85;;
43809;SDS011;29440;48.208;11.162;2024-03-17T10:37:08;1.73;;;0.60;;
43809;SDS011;29440;48.208;11.162;2024-03-17T10:39:43;2.40;;;0.60;;
43809;SDS011;29440;48.208;11.162;2024-03-17T10:42:13;1.15;;;0.50;;
43809;SDS011;29440;48.208;11.162;2024-03-17T10:44:39;3.03;;;0.60;;
43809;SDS011;29440;48.208;11.162;2024-03-17T10:47:06;0.60;;;0.50;;
43809;SDS011;29440;48.208;11.162;2024-03-17T10:49:38;2.33;;;0.57;;
43809;SDS011;29440;48.208;11.162;2024-03-17T10:52:05;1.10;;;0.60;;
43809;SDS011;29440;48.208;11.162;2024-03-17T10:54:33;1.63;;;0.80;;
43809;SDS011;29440;48.208;11.162;2024-03-17T10:57:19;1.40;;;0.70;;
43809;SDS011;29440;48.208;11.162;2024-03-17T11:00:08;2.05;;;0.60;;
43809;SDS011;29440;48.208;11.162;2024-03-17T11:02:37;1.50;;;0.50;;
43809;SDS011;29440;48.208;11.162;2024-03-17T11:05:10;3.28;;;1.13;;
43809;SDS011;29440;48.208;11.162;2024-03-17T11:07:39;1.63;;;1.03;;
43809;SDS011;29440;48.208;11.162;2024-03-17T11:10:11;1.55;;;0.70;;
43809;SDS011;29440;48.208;11.162;2024-03-17T11:17:50;2.30;;;0.65;;
43809;SDS011;29440;48.208;11.162;2024-03-17T11:20:19;3.35;;;0.60;;
43809;SDS011;29440;48.208;11.162;2024-03-17T11:22:51;2.17;;;0.60;;
43809;SDS011;29440;48.208;11.162;2024-03-17T11:27:51;3.92;;;0.50;;
43809;SDS011;29440;48.208;11.162;2024-03-17T11:39:03;3.55;;;0.57;;
43809;SDS011;29440;48.208;11.162;2024-03-17T11:41:50;0.85;;;0.45;;
43809;SDS011;29440;48.208;11.162;2024-03-17T11:46:58;0.80;;;0.47;;
43809;SDS011;29440;48.208;11.162;2024-03-17T11:51:55;2.90;;;0.52;;
43809;SDS011;29440;48.208;11.162;2024-03-17T11:54:22;5.55;;;1.50;;
43809;SDS011;29440;48.208;11.162;2024-03-17T11:56:52;1.20;;;0.45;;
43809;SDS011;29440;48.208;11.162;2024-03-17T11:59:22;1.38;;;0.60;;
43809;SDS011;29440;48.208;11.162;2024-03-17T12:01:49;4.25;;;1.13;;
43809;SDS011;29440;48.208;11.162;2024-03-17T12:04:15;1.83;;;0.50;;
43809;SDS011;29440;48.208;11.162;2024-03-17T12:06:50;1.17;;;0.40;;
43809;SDS011;29440;48.208;11.162;2024-03-17T12:09:20;1.67;;;0.75;;
43809;SDS011;29440;48.208;11.162;2024-03-17T12:12:04;5.68;;;0.52;;
43809;SDS011;29440;48.208;11.162;2024-03-17T12:14:31;2.40;;;0.47;;
43809;SDS011;29440;48.208;11.162;2024-03-17T12:16:59;1.98;;;0.73;;
43809;SDS011;29440;48.208;11.162;2024-03-17T12:19:26;1.25;;;0.50;;
43809;SDS011;29440;48.208;11.162;2024-03-17T12:21:53;3.22;;;0.75;;
43809;SDS011;29440;48.208;11.162;2024-03-17T12:24:20;2.03;;;0.60;;
43809;SDS011;29440;48.208;11.162;2024-03-17T12:26:48;2.13;;;0.50;;
43809;SDS011;29440;48.208;11.162;2024-03-17T12:29:21;4.03;;;0.68;;
43809;SDS011;29440;48.208;11.162;2024-03-17T12:31:52;4.03;;;0.70;;
43809;SDS011;29440;48.208;11.162;2024-03-17T12:34:19;2.05;;;0.38;;
43809;SDS011;29440;48.208;11.162;2024-03-17T12:36:46;2.72;;;0.60;;
43809;SDS011;29440;48.208;11.162;2024-03-17T12:39:22;4.18;;;0.47;;
43809;SDS011;29440;48.208;11.162;2024-03-17T12:47:17;2.33;;;0.50;;
43809;SDS011;29440;48.208;11.162;2024-03-17T12:49:50;2.97;;;0.50;;
43809;SDS011;29440;48.208;11.162;2024-03-17T12:55:09;3.30;;;0.50;;
43809;SDS011;29440;48.208;11.162;2024-03-17T13:00:56;1.50;;;0.40;;
43809;SDS011;29440;48.208;11.162;2024-03-17T13:03:26;2.78;;;0.50;;
43809;SDS011;29440;48.208;11.162;2024-03-17T13:05:57;1.52;;;0.93;;
43809;SDS011;29440;48.208;11.162;2024-03-17T13:08:23;4.38;;;0.60;;
43809;SDS011;29440;48.208;11.162;2024-03-17T13:10:48;4.43;;;0.70;;
43809;SDS011;29440;48.208;11.162;2024-03-17T13:13:14;1.70;;;0.50;;
43809;SDS011;29440;48.208;11.162;2024-03-17T13:15:41;1.60;;;0.50;;
43809;SDS011;29440;48.208;11.162;2024-03-17T13:18:07;3.60;;;0.50;;
43809;SDS011;29440;48.208;11.162;2024-03-17T13:20:33;1.52;;;0.60;;
43809;SDS011;29440;48.208;11.162;2024-03-17T13:23:00;3.25;;;0.70;;
43809;SDS011;29440;48.208;11.162;2024-03-17T13:25:29;4.57;;;0.57;;
43809;SDS011;29440;48.208;11.162;2024-03-17T13:28:07;3.27;;;0.60;;
43809;SDS011;29440;48.208;11.162;2024-03-17T13:30:33;2.90;;;0.82;;
43809;SDS011;29440;48.208;11.162;2024-03-17T13:33:01;2.15;;;0.70;;
43809;SDS011;29440;48.208;11.162;2024-03-17T13:35:30;4.68;;;0.75;;
43809;SDS011;29440;48.208;11.162;2024-03-17T13:37:56;4.90;;;0.70;;
43809;SDS011;29440;48.208;11.162;2024-03-17T13:40:27;2.38;;;0.47;;
43809;SDS011;29440;48.208;11.162;2024-03-17T13:42:54;4.72;;;0.70;;
43809;SDS011;29440;48.208;11.162;2024-03-17T13:45:21;1.77;;;0.70;;
43809;SDS011;29440;48.208;11.162;2024-03-17T13:47:49;1.65;;;0.50;;
43809;SDS011;29440;48.208;11.162;2024-03-17T13:50:20;2.70;;;0.55;;
43809;SDS011;29440;48.208;11.162;2024-03-17T13:52:46;2.83;;;0.60;;
43809;SDS011;29440;48.208;11.162;2024-03-17T13:55:14;3.38;;;0.80;;
43809;SDS011;29440;48.208;11.162;2024-03-17T13:57:40;6.38;;;0.57;;
43809;SDS011;29440;48.208;11.162;2024-03-17T14:00:08;3.78;;;0.60;;
43809;SDS011;29440;48.208;11.162;2024-03-17T14:02:34;2.47;;;0.43;;
43809;SDS011;29440;48.208;11.162;2024-03-17T14:05:00;3.72;;;0.60;;
43809;SDS011;29440;48.208;11.162;2024-03-17T14:07:27;1.60;;;0.50;;
43809;SDS011;29440;48.208;11.162;2024-03-17T14:09:52;2.17;;;0.57;;
43809;SDS011;29440;48.208;11.162;2024-03-17T14:12:18;1.52;;;0.50;;
43809;SDS011;29440;48.208;11.162;2024-03-17T14:14:43;3.55;;;0.63;;
43809;SDS011;29440;48.208;11.162;2024-03-17T14:17:09;2.75;;;0.60;;
43809;SDS011;29440;48.208;11.162;2024-03-17T14:19:35;2.17;;;0.40;;
43809;SDS011;29440;48.208;11.162;2024-03-17T14:22:00;4.50;;;0.60;;
43809;SDS011;29440;48.208;11.162;2024-03-17T14:24:26;4.43;;;0.60;;
43809;SDS011;29440;48.208;11.162;2024-03-17T14:26:52;2.53;;;0.60;;
43809;SDS011;29440;48.208;11.162;2024-03-17T14:29:17;1.40;;;0.45;;
43809;SDS011;29440;48.208;11.162;2024-03-17T14:31:43;4.63;;;0.80;;
43809;SDS011;29440;48.208;11.162;2024-03-17T14:34:10;3.38;;;0.60;;
43809;SDS011;29440;48.208;11.162;2024-03-17T14:36:36;2.95;;;0.57;;
43809;SDS011;29440;48.208;11.162;2024-03-17T14:39:02;3.45;;;0.77;;
43809;SDS011;29440;48.208;11.162;2024-03-17T14:41:29;1.67;;;0.50;;
43809;SDS011;29440;48.208;11.162;2024-03-17T14:43:55;2.30;;;0.35;;
43809;SDS011;29440;48.208;11.162;2024-03-17T14:46:22;3.08;;;0.60;;
43809;SDS011;29440;48.208;11.162;2024-03-17T14:48:50;3.17;;;0.45;;
43809;SDS011;29440;48.208;11.162;2024-03-17T14:51:20;2.70;;;0.50;;
43809;SDS011;29440;48.208;11.162;2024-03-17T14:53:48;3.25;;;0.50;;
43809;SDS011;29440;48.208;11.162;2024-03-17T14:56:16;2.78;;;0.50;;
43809;SDS011;29440;48.208;11.162;2024-03-17T14:58:42;1.90;;;0.40;;
43809;SDS011;29440;48.208;11.162;2024-03-17T15:01:09;2.28;;;0.60;;
43809;SDS011;29440;48.208;11.162;2024-03-17T15:03:35;2.85;;;0.50;;
43809;SDS011;29440;48.208;11.162;2024-03-17T15:06:01;2.33;;;0.50;;
43809;SDS011;29440;48.208;11.162;2024-03-17T15:08:29;2.67;;;0.50;;
43809;SDS011;29440;48.208;11.162;2024-03-17T15:10:55;2.88;;;0.50;;
43809;SDS011;29440;48.208;11.162;2024-03-17T15:13:21;2.67;;;0.50;;
43809;SDS011;29440;48.208;11.162;2024-03-17T15:15:48;3.58;;;0.60;;
43809;SDS011;29440;48.208;11.162;2024-03-17T15:18:14;4.13;;;0.70;;
43809;SDS011;29440;48.208;11.162;2024-03-17T15:20:41;2.40;;;0.57;;